createdAt,value
2019-06-27T00:02:40.637Z,87.50
2019-06-27T00:12:28.031Z,86.30
2019-06-27T00:17:22.246Z,87.30
2019-06-27T00:22:16.316Z,86.40
2019-06-27T00:27:10.395Z,85.40
2019-06-27T00:32:07.921Z,85.60
2019-06-27T00:37:01.728Z,76.70
2019-06-27T00:41:55.862Z,76.30
2019-06-27T00:46:50.909Z,74.50
2019-06-27T00:51:45.921Z,72.00
2019-06-27T00:56:39.785Z,73.10
2019-06-27T01:01:33.703Z,73.90
2019-06-27T01:06:28.997Z,73.70
2019-06-27T01:11:23.548Z,71.30
2019-06-27T01:16:17.395Z,70.70
2019-06-27T01:21:11.730Z,69.20
2019-06-27T01:26:05.857Z,68.00
2019-06-27T01:31:00.442Z,66.30
2019-06-27T01:35:55.983Z,65.10
2019-06-27T01:40:51.416Z,64.40
2019-06-27T01:45:48.064Z,62.80
2019-06-27T01:50:44.202Z,62.40
2019-06-27T01:55:38.109Z,61.70
2019-06-27T02:00:33.577Z,60.20
2019-06-27T02:05:27.345Z,60.20
2019-06-27T02:10:21.991Z,59.60
2019-06-27T02:15:21.940Z,63.90
2019-06-27T02:20:14.360Z,61.70
2019-06-27T02:25:08.794Z,62.80
2019-06-27T02:30:05.215Z,63.80
2019-06-27T02:34:58.925Z,64.20
2019-06-27T02:39:53.640Z,64.40
2019-06-27T02:44:47.398Z,64.30
2019-06-27T02:49:43.331Z,63.30
2019-06-27T02:54:38.657Z,66.20
2019-06-27T02:59:33.057Z,65.00
2019-06-27T03:04:26.881Z,65.80
2019-06-27T03:09:20.850Z,67.70
2019-06-27T03:14:15.660Z,68.40
2019-06-27T03:19:10.130Z,68.70
2019-06-27T03:24:06.511Z,68.60
2019-06-27T03:29:00.716Z,69.80
2019-06-27T03:33:55.822Z,70.30
2019-06-27T03:38:53.205Z,69.90
2019-06-27T03:54:12.930Z,72.60
2019-06-27T03:59:12.739Z,72.40
2019-06-27T04:04:03.641Z,73.20
2019-06-27T04:08:57.287Z,72.80
2019-06-27T04:13:51.494Z,73.40
2019-06-27T04:18:46.634Z,71.80
2019-06-27T04:23:40.398Z,70.10
2019-06-27T04:28:36.092Z,67.00
2019-06-27T04:33:30.229Z,63.80
2019-06-27T04:38:24.037Z,62.00
2019-06-27T04:43:18.967Z,59.80
2019-06-27T04:48:12.786Z,58.10
2019-06-27T04:53:08.277Z,55.30
2019-06-27T04:58:08.910Z,53.90
2019-06-27T05:03:06.142Z,51.90
2019-06-27T05:07:58.891Z,50.10
2019-06-27T05:17:46.993Z,47.90
2019-06-27T05:22:41.591Z,46.50
2019-06-27T05:27:35.534Z,44.90
2019-06-27T05:32:29.357Z,43.50
2019-06-27T05:37:23.501Z,43.20
2019-06-27T05:42:20.264Z,41.80
2019-06-27T05:47:14.075Z,40.60
2019-06-27T05:52:07.972Z,39.80
2019-06-27T05:57:06.878Z,39.50
2019-06-27T06:02:03.650Z,38.50
2019-06-27T06:06:58.654Z,38.40
2019-06-27T06:11:52.702Z,37.60
2019-06-27T06:21:53.207Z,37.10
2019-06-27T06:26:47.195Z,37.90
2019-06-27T06:31:42.405Z,37.50
2019-06-27T06:36:36.263Z,36.20
2019-06-27T06:41:35.365Z,34.80
2019-06-27T06:46:30.505Z,33.70
2019-06-27T06:51:29.374Z,33.00
2019-06-27T06:56:23.838Z,31.70
2019-06-27T07:01:21.279Z,31.40
2019-06-27T07:06:16.716Z,31.50
2019-06-27T07:11:12.103Z,33.60
2019-06-27T07:16:06.504Z,31.60
2019-06-27T07:21:00.701Z,30.30
2019-06-27T07:25:54.559Z,28.90
2019-06-27T07:30:49.865Z,28.40
2019-06-27T07:35:43.651Z,27.30
2019-06-27T07:40:37.712Z,26.20
2019-06-27T07:45:31.574Z,26.00
2019-06-27T07:50:25.445Z,26.40
2019-06-27T07:55:21.677Z,26.00
2019-06-27T08:00:16.315Z,25.30
2019-06-27T08:05:11.515Z,24.90
2019-06-27T08:10:04.291Z,24.50
2019-06-27T08:14:58.679Z,24.00
2019-06-27T08:19:52.887Z,23.80
2019-06-27T08:24:46.629Z,23.20
2019-06-27T08:29:40.728Z,23.50
2019-06-27T08:34:34.898Z,23.30
2019-06-27T08:39:28.973Z,23.50
2019-06-27T08:44:25.747Z,23.10
2019-06-27T08:49:23.570Z,23.00
2019-06-27T08:54:17.690Z,22.80
2019-06-27T08:59:12.299Z,22.70
2019-06-27T09:04:07.588Z,22.90
2019-06-27T09:09:01.658Z,22.40
2019-06-27T09:13:55.376Z,21.70
2019-06-27T09:18:49.323Z,21.70
2019-06-27T09:23:44.185Z,21.20
2019-06-27T09:28:38.048Z,21.30
2019-06-27T09:33:32.098Z,21.10
2019-06-27T09:38:32.183Z,21.20
2019-06-27T09:43:26.674Z,20.40
2019-06-27T09:48:21.079Z,20.40
2019-06-27T09:53:14.867Z,19.90
2019-06-27T10:03:04.812Z,20.00
2019-06-27T10:07:59.095Z,19.40
2019-06-27T10:12:52.960Z,19.40
2019-06-27T10:17:53.320Z,19.50
2019-06-27T10:27:40.895Z,18.60
2019-06-27T10:32:34.695Z,19.10
2019-06-27T10:37:28.472Z,19.20
2019-06-27T10:42:22.784Z,19.30
2019-06-27T10:52:11.199Z,19.10
2019-06-27T10:57:05.335Z,19.30
2019-06-27T11:01:59.187Z,19.00
2019-06-27T11:06:52.985Z,19.50
2019-06-27T11:11:46.941Z,21.00
2019-06-27T11:16:40.743Z,23.30
2019-06-27T11:21:35.752Z,26.00
2019-06-27T11:26:28.708Z,27.60
2019-06-27T11:31:22.895Z,27.90
2019-06-27T11:36:16.672Z,28.90
2019-06-27T11:41:10.595Z,29.90
2019-06-27T11:46:04.448Z,30.10
2019-06-27T11:50:58.432Z,30.70
2019-06-27T11:55:52.309Z,32.00
2019-06-27T12:00:46.183Z,32.10
2019-06-27T12:05:39.947Z,31.20
2019-06-27T12:10:33.930Z,31.10
2019-06-27T12:15:27.645Z,31.30
2019-06-27T12:20:21.477Z,31.10
2019-06-27T12:25:15.437Z,30.50
2019-06-27T12:30:11.159Z,32.20
2019-06-27T12:35:06.823Z,32.30
2019-06-27T12:40:01.869Z,32.30
2019-06-27T12:44:55.719Z,32.80
2019-06-27T12:50:01.244Z,31.60
2019-06-27T12:54:45.089Z,31.80
2019-06-27T12:59:38.940Z,31.80
2019-06-27T13:04:32.767Z,32.30
2019-06-27T13:09:27.179Z,32.60
2019-06-27T13:14:21.025Z,33.10
2019-06-27T13:19:14.853Z,32.20
2019-06-27T13:24:08.634Z,33.10
2019-06-27T13:29:03.054Z,32.40
2019-06-27T13:33:57.608Z,31.80
2019-06-27T13:38:53.103Z,31.50
2019-06-27T13:43:49.233Z,31.80
2019-06-27T14:13:11.406Z,34.30
2019-06-27T14:18:10.186Z,33.30
2019-06-27T14:23:05.504Z,34.10
2019-06-27T14:42:37.461Z,32.50
2019-06-27T14:47:31.235Z,33.20
2019-06-27T14:52:25.097Z,32.60
2019-06-27T14:57:19.198Z,33.00
2019-06-27T15:02:12.856Z,33.70
2019-06-27T15:07:06.905Z,33.60
2019-06-27T15:12:00.709Z,33.50
2019-06-27T15:16:54.980Z,33.60
2019-06-27T15:21:50.302Z,33.50
2019-06-27T15:26:44.275Z,33.90
2019-06-27T15:31:38.126Z,35.10
2019-06-27T15:36:31.959Z,34.20
2019-06-27T15:41:26.351Z,34.10
2019-06-27T15:46:20.193Z,34.30
2019-06-27T15:51:14.006Z,34.70
2019-06-27T16:01:01.683Z,35.70
2019-06-27T16:06:08.735Z,36.00
2019-06-27T16:10:51.139Z,35.70
2019-06-27T16:15:44.988Z,35.60
2019-06-27T16:20:38.944Z,36.30
2019-06-27T16:25:32.752Z,36.60
2019-06-27T16:30:26.797Z,36.40
2019-06-27T16:35:20.583Z,36.10
2019-06-27T16:40:14.908Z,35.20
2019-06-27T16:45:10.412Z,35.70
2019-06-27T16:50:05.142Z,36.10
2019-06-27T16:54:58.899Z,36.70
2019-06-27T17:04:45.818Z,36.70
2019-06-27T17:09:39.737Z,37.40
2019-06-27T17:14:33.495Z,36.90
2019-06-27T17:43:53.192Z,38.70
2019-06-27T17:48:47.914Z,39.60
2019-06-27T17:53:42.688Z,39.20
2019-06-27T17:58:36.463Z,39.80
2019-06-27T18:03:30.260Z,42.60
2019-06-27T18:08:24.028Z,40.90
2019-06-27T18:13:19.367Z,40.90
2019-06-27T18:18:13.334Z,42.40
2019-06-27T18:23:12.275Z,42.30
2019-06-27T18:28:09.408Z,43.30
2019-06-27T18:33:05.863Z,43.20
2019-06-27T18:37:59.630Z,43.60
2019-06-27T18:42:53.447Z,44.60
2019-06-27T18:47:47.423Z,45.40
2019-06-27T18:52:41.844Z,46.10
2019-06-27T18:57:36.574Z,45.90
2019-06-27T19:07:24.122Z,47.00
2019-06-27T19:12:19.396Z,47.10
2019-06-27T19:17:13.670Z,48.00
2019-06-27T19:22:14.590Z,48.60
2019-06-27T19:27:08.456Z,49.10
2019-06-27T19:32:02.448Z,49.50
2019-06-27T19:36:56.454Z,50.50
2019-06-27T19:46:43.209Z,51.00
2019-06-27T19:51:36.957Z,52.20
2019-06-27T19:56:31.574Z,52.50
2019-06-27T20:01:25.904Z,53.00
2019-06-27T20:06:20.158Z,53.50
2019-06-27T20:11:14.030Z,55.10
2019-06-27T20:16:08.493Z,55.20
2019-06-27T20:21:03.200Z,55.70
2019-06-27T20:25:57.328Z,55.70
2019-06-27T20:30:51.232Z,57.00
2019-06-27T20:35:45.468Z,57.50
2019-06-27T20:40:39.384Z,57.90
2019-06-27T20:45:34.451Z,58.00
2019-06-27T20:50:30.300Z,58.60
2019-06-27T20:55:23.842Z,59.20
2019-06-27T21:00:20.617Z,59.80
2019-06-27T21:05:14.888Z,60.10
2019-06-27T21:10:09.438Z,60.00
2019-06-27T21:15:05.950Z,60.80
2019-06-27T21:20:00.169Z,61.40
2019-06-27T21:24:55.082Z,61.80
2019-06-27T21:29:48.935Z,63.10
2019-06-27T21:34:43.137Z,63.70
2019-06-27T21:39:37.155Z,64.50
2019-06-27T21:44:31.153Z,65.10
2019-06-27T21:49:25.771Z,65.30
2019-06-27T21:54:19.945Z,66.40
2019-06-27T21:59:14.669Z,67.10
2019-06-27T22:04:08.863Z,67.70
2019-06-27T22:09:05.324Z,68.70
2019-06-27T22:13:59.112Z,69.30
2019-06-27T22:18:53.215Z,70.70
2019-06-27T22:23:47.170Z,71.50
2019-06-27T22:28:40.943Z,72.20
2019-06-27T22:33:35.053Z,72.80
2019-06-27T22:38:48.597Z,73.10
2019-06-27T22:44:00.028Z,73.20
2019-06-27T22:48:53.834Z,73.20
2019-06-27T22:53:55.585Z,74.40
2019-06-27T22:58:53.481Z,75.50
2019-06-27T23:03:47.652Z,77.10
2019-06-27T23:08:42.227Z,78.20
2019-06-27T23:13:36.543Z,78.80
2019-06-27T23:18:30.377Z,79.80
2019-06-27T23:23:24.451Z,80.50
2019-06-27T23:28:19.202Z,81.60
2019-06-27T23:33:13.595Z,82.70
2019-06-27T23:38:08.973Z,83.40
2019-06-27T23:43:04.162Z,84.20
2019-06-27T23:47:57.981Z,85.20
2019-06-27T23:52:51.878Z,85.80
2019-06-27T23:57:45.983Z,86.60
